sensor_id;sensor_type;location;lat;lon;timestamp;pressure;altitude;pressure_sealevel;temperature;humidity
78064;BME280;67429;51.596;-3.264;2024-02-15T00:00:37;98883.78;;;12.86;100.00
78064;BME280;67429;51.596;-3.264;2024-02-15T00:03:03;98888.96;;;13.11;100.00
78064;BME280;67429;51.596;-3.264;2024-02-15T00:05:29;98884.05;;;13.32;100.00
78064;BME280;67429;51.596;-3.264;2024-02-15T00:07:54;98883.75;;;12.30;100.00
78064;BME280;67429;51.596;-3.264;2024-02-15T00:10:20;98868.57;;;12.81;100.00
78064;BME280;67429;51.596;-3.264;2024-02-15T00:12:45;98871.13;;;12.64;100.00
78064;BME280;67429;51.596;-3.264;2024-02-15T00:15:12;98879.28;;;12.52;100.00
78064;BME280;67429;51.596;-3.264;2024-02-15T00:17:36;98867.60;;;12.45;100.00
78064;BME280;67429;51.596;-3.264;2024-02-15T00:20:02;98868.24;;;12.40;100.00
78064;BME280;67429;51.596;-3.264;2024-02-15T00:22:27;98876.89;;;12.42;100.00
78064;BME280;67429;51.596;-3.264;2024-02-15T00:24:53;98880.76;;;12.89;100.00
78064;BME280;67429;51.596;-3.264;2024-02-15T00:27:18;98876.51;;;13.00;100.00
78064;BME280;67429;51.596;-3.264;2024-02-15T00:29:44;98881.75;;;13.47;100.00
78064;BME280;67429;51.596;-3.264;2024-02-15T00:32:10;98874.87;;;13.11;100.00
78064;BME280;67429;51.596;-3.264;2024-02-15T00:34:35;98875.99;;;13.10;100.00
78064;BME280;67429;51.596;-3.264;2024-02-15T00:37:01;98882.13;;;14.35;100.00
78064;BME280;67429;51.596;-3.264;2024-02-15T00:39:26;98877.42;;;14.32;100.00
78064;BME280;67429;51.596;-3.264;2024-02-15T00:41:51;98874.32;;;14.31;100.00
78064;BME280;67429;51.596;-3.264;2024-02-15T00:44:22;98872.35;;;14.00;100.00
78064;BME280;67429;51.596;-3.264;2024-02-15T00:46:43;98866.37;;;13.88;100.00
78064;BME280;67429;51.596;-3.264;2024-02-15T00:49:13;98855.87;;;13.60;100.00
78064;BME280;67429;51.596;-3.264;2024-02-15T00:51:35;98850.72;;;12.97;100.00
78064;BME280;67429;51.596;-3.264;2024-02-15T00:54:00;98850.24;;;13.30;100.00
78064;BME280;67429;51.596;-3.264;2024-02-15T00:56:25;98853.16;;;12.38;100.00
78064;BME280;67429;51.596;-3.264;2024-02-15T00:58:50;98855.98;;;11.77;100.00
78064;BME280;67429;51.596;-3.264;2024-02-15T01:01:16;98850.52;;;12.11;100.00
78064;BME280;67429;51.596;-3.264;2024-02-15T01:03:41;98846.11;;;12.28;100.00
78064;BME280;67429;51.596;-3.264;2024-02-15T01:06:07;98847.69;;;12.17;100.00
78064;BME280;67429;51.596;-3.264;2024-02-15T01:08:34;98849.31;;;12.18;100.00
78064;BME280;67429;51.596;-3.264;2024-02-15T01:10:58;98847.32;;;12.02;100.00
78064;BME280;67429;51.596;-3.264;2024-02-15T01:13:26;98843.38;;;12.61;100.00
78064;BME280;67429;51.596;-3.264;2024-02-15T01:15:49;98833.92;;;12.73;100.00
78064;BME280;67429;51.596;-3.264;2024-02-15T01:18:15;98833.05;;;12.46;100.00
78064;BME280;67429;51.596;-3.264;2024-02-15T01:20:40;98824.46;;;12.22;100.00
78064;BME280;67429;51.596;-3.264;2024-02-15T01:23:06;98819.75;;;12.18;100.00
78064;BME280;67429;51.596;-3.264;2024-02-15T01:25:31;98822.42;;;11.95;100.00
78064;BME280;67429;51.596;-3.264;2024-02-15T01:27:57;98826.17;;;11.76;100.00
78064;BME280;67429;51.596;-3.264;2024-02-15T01:30:23;98823.38;;;11.97;100.00
78064;BME280;67429;51.596;-3.264;2024-02-15T01:32:49;98821.84;;;11.62;100.00
78064;BME280;67429;51.596;-3.264;2024-02-15T01:35:15;98818.01;;;11.51;100.00
78064;BME280;67429;51.596;-3.264;2024-02-15T01:37:41;98816.43;;;11.90;100.00
78064;BME280;67429;51.596;-3.264;2024-02-15T01:40:06;98814.56;;;11.54;100.00
78064;BME280;67429;51.596;-3.264;2024-02-15T01:42:31;98823.35;;;12.47;100.00
78064;BME280;67429;51.596;-3.264;2024-02-15T01:44:56;98819.56;;;12.49;100.00
78064;BME280;67429;51.596;-3.264;2024-02-15T01:47:21;98823.33;;;11.84;100.00
78064;BME280;67429;51.596;-3.264;2024-02-15T01:49:47;98813.27;;;11.41;100.00
78064;BME280;67429;51.596;-3.264;2024-02-15T01:52:13;98816.48;;;12.17;100.00
78064;BME280;67429;51.596;-3.264;2024-02-15T01:54:39;98818.55;;;11.78;100.00
78064;BME280;67429;51.596;-3.264;2024-02-15T01:57:05;98812.72;;;11.78;100.00
78064;BME280;67429;51.596;-3.264;2024-02-15T01:59:29;98821.79;;;11.40;100.00
78064;BME280;67429;51.596;-3.264;2024-02-15T02:01:55;98813.30;;;12.23;100.00
78064;BME280;67429;51.596;-3.264;2024-02-15T02:04:20;98811.36;;;12.36;100.00
78064;BME280;67429;51.596;-3.264;2024-02-15T02:06:46;98807.16;;;11.98;100.00
78064;BME280;67429;51.596;-3.264;2024-02-15T02:09:13;98811.01;;;12.26;100.00
78064;BME280;67429;51.596;-3.264;2024-02-15T02:11:37;98809.49;;;12.04;100.00
78064;BME280;67429;51.596;-3.264;2024-02-15T02:14:02;98807.89;;;12.34;100.00
78064;BME280;67429;51.596;-3.264;2024-02-15T02:16:29;98807.89;;;11.79;100.00
78064;BME280;67429;51.596;-3.264;2024-02-15T02:18:55;98811.51;;;12.06;100.00
78064;BME280;67429;51.596;-3.264;2024-02-15T02:21:19;98810.65;;;12.55;100.00
78064;BME280;67429;51.596;-3.264;2024-02-15T02:23:48;98810.78;;;12.09;100.00
78064;BME280;67429;51.596;-3.264;2024-02-15T02:26:09;98807.43;;;11.91;100.00
78064;BME280;67429;51.596;-3.264;2024-02-15T02:28:36;98802.85;;;13.09;100.00
78064;BME280;67429;51.596;-3.264;2024-02-15T02:31:03;98798.50;;;12.71;100.00
78064;BME280;67429;51.596;-3.264;2024-02-15T02:33:31;98798.51;;;12.28;100.00
78064;BME280;67429;51.596;-3.264;2024-02-15T02:35:52;98799.36;;;11.94;100.00
78064;BME280;67429;51.596;-3.264;2024-02-15T02:38:17;98797.16;;;12.15;100.00
78064;BME280;67429;51.596;-3.264;2024-02-15T02:40:43;98796.63;;;11.35;100.00
78064;BME280;67429;51.596;-3.264;2024-02-15T02:43:08;98800.07;;;12.12;100.00
78064;BME280;67429;51.596;-3.264;2024-02-15T02:45:35;98797.79;;;11.82;100.00
78064;BME280;67429;51.596;-3.264;2024-02-15T02:47:59;98789.39;;;11.22;100.00
78064;BME280;67429;51.596;-3.264;2024-02-15T02:50:25;98785.58;;;11.15;100.00
78064;BME280;67429;51.596;-3.264;2024-02-15T02:52:50;98786.51;;;11.05;100.00
78064;BME280;67429;51.596;-3.264;2024-02-15T02:55:16;98783.50;;;11.60;100.00
78064;BME280;67429;51.596;-3.264;2024-02-15T02:57:42;98779.24;;;10.75;100.00
78064;BME280;67429;51.596;-3.264;2024-02-15T03:00:09;98783.67;;;11.40;100.00
78064;BME280;67429;51.596;-3.264;2024-02-15T03:02:32;98778.76;;;11.14;100.00
78064;BME280;67429;51.596;-3.264;2024-02-15T03:04:58;98778.77;;;10.98;100.00
78064;BME280;67429;51.596;-3.264;2024-02-15T03:07:24;98778.51;;;11.31;100.00
78064;BME280;67429;51.596;-3.264;2024-02-15T03:09:49;98768.79;;;11.16;100.00
78064;BME280;67429;51.596;-3.264;2024-02-15T03:12:15;98766.04;;;10.48;100.00
78064;BME280;67429;51.596;-3.264;2024-02-15T03:14:40;98772.69;;;11.16;100.00
78064;BME280;67429;51.596;-3.264;2024-02-15T03:17:07;98773.96;;;11.17;100.00
78064;BME280;67429;51.596;-3.264;2024-02-15T03:19:32;98771.52;;;11.35;100.00
78064;BME280;67429;51.596;-3.264;2024-02-15T03:21:57;98769.47;;;11.38;100.00
78064;BME280;67429;51.596;-3.264;2024-02-15T03:24:22;98767.55;;;11.47;100.00
78064;BME280;67429;51.596;-3.264;2024-02-15T03:26:48;98774.40;;;11.48;100.00
78064;BME280;67429;51.596;-3.264;2024-02-15T03:29:14;98775.77;;;11.95;100.00
78064;BME280;67429;51.596;-3.264;2024-02-15T03:31:39;98773.24;;;12.45;100.00
78064;BME280;67429;51.596;-3.264;2024-02-15T03:34:06;98768.43;;;11.88;100.00
78064;BME280;67429;51.596;-3.264;2024-02-15T03:36:30;98768.49;;;12.91;100.00
78064;BME280;67429;51.596;-3.264;2024-02-15T03:38:56;98761.35;;;12.23;100.00
78064;BME280;67429;51.596;-3.264;2024-02-15T03:41:26;98758.54;;;12.71;100.00
78064;BME280;67429;51.596;-3.264;2024-02-15T03:43:47;98753.47;;;12.30;100.00
78064;BME280;67429;51.596;-3.264;2024-02-15T03:46:13;98746.00;;;12.31;100.00
78064;BME280;67429;51.596;-3.264;2024-02-15T03:48:38;98742.98;;;12.01;100.00
78064;BME280;67429;51.596;-3.264;2024-02-15T03:51:03;98740.08;;;12.09;100.00
78064;BME280;67429;51.596;-3.264;2024-02-15T03:53:28;98737.59;;;12.37;100.00
78064;BME280;67429;51.596;-3.264;2024-02-15T03:55:54;98729.00;;;12.83;100.00
78064;BME280;67429;51.596;-3.264;2024-02-15T03:58:19;98730.93;;;12.00;100.00
78064;BME280;67429;51.596;-3.264;2024-02-15T04:00:50;98733.68;;;12.41;100.00
78064;BME280;67429;51.596;-3.264;2024-02-15T04:03:11;98735.01;;;12.34;100.00
78064;BME280;67429;51.596;-3.264;2024-02-15T04:05:37;98734.30;;;12.37;100.00
78064;BME280;67429;51.596;-3.264;2024-02-15T04:08:02;98737.79;;;12.44;100.00
78064;BME280;67429;51.596;-3.264;2024-02-15T04:10:27;98734.36;;;12.48;100.00
78064;BME280;67429;51.596;-3.264;2024-02-15T04:12:52;98731.35;;;13.25;100.00
78064;BME280;67429;51.596;-3.264;2024-02-15T04:15:18;98731.92;;;13.17;100.00
78064;BME280;67429;51.596;-3.264;2024-02-15T04:17:45;98728.42;;;12.59;100.00
78064;BME280;67429;51.596;-3.264;2024-02-15T04:20:10;98730.30;;;12.12;100.00
78064;BME280;67429;51.596;-3.264;2024-02-15T04:22:35;98735.75;;;11.77;100.00
78064;BME280;67429;51.596;-3.264;2024-02-15T04:25:00;98733.74;;;11.93;100.00
78064;BME280;67429;51.596;-3.264;2024-02-15T04:27:25;98724.96;;;11.65;100.00
78064;BME280;67429;51.596;-3.264;2024-02-15T04:29:51;98723.97;;;12.12;100.00
78064;BME280;67429;51.596;-3.264;2024-02-15T04:32:16;98721.76;;;12.18;100.00
78064;BME280;67429;51.596;-3.264;2024-02-15T04:34:43;98720.99;;;12.90;100.00
78064;BME280;67429;51.596;-3.264;2024-02-15T04:37:07;98717.49;;;12.51;100.00
78064;BME280;67429;51.596;-3.264;2024-02-15T04:39:33;98724.57;;;12.03;100.00
78064;BME280;67429;51.596;-3.264;2024-02-15T04:42:00;98730.48;;;11.79;100.00
78064;BME280;67429;51.596;-3.264;2024-02-15T04:44:24;98725.23;;;12.64;100.00
78064;BME280;67429;51.596;-3.264;2024-02-15T04:46:50;98723.20;;;12.52;100.00
78064;BME280;67429;51.596;-3.264;2024-02-15T04:49:15;98722.34;;;13.10;100.00
78064;BME280;67429;51.596;-3.264;2024-02-15T04:51:41;98726.59;;;12.44;100.00
78064;BME280;67429;51.596;-3.264;2024-02-15T04:54:07;98722.85;;;12.72;100.00
78064;BME280;67429;51.596;-3.264;2024-02-15T04:56:32;98717.88;;;13.21;100.00
78064;BME280;67429;51.596;-3.264;2024-02-15T04:58:57;98720.02;;;13.75;100.00
78064;BME280;67429;51.596;-3.264;2024-02-15T05:01:23;98715.41;;;13.42;100.00
78064;BME280;67429;51.596;-3.264;2024-02-15T05:03:49;98715.63;;;13.92;100.00
78064;BME280;67429;51.596;-3.264;2024-02-15T05:06:15;98716.18;;;13.90;100.00
78064;BME280;67429;51.596;-3.264;2024-02-15T05:08:40;98719.67;;;13.60;100.00
78064;BME280;67429;51.596;-3.264;2024-02-15T05:11:05;98717.89;;;13.90;100.00
78064;BME280;67429;51.596;-3.264;2024-02-15T05:13:32;98718.51;;;13.87;100.00
78064;BME280;67429;51.596;-3.264;2024-02-15T05:15:57;98713.40;;;14.29;100.00
78064;BME280;67429;51.596;-3.264;2024-02-15T05:18:23;98713.74;;;14.02;100.00
78064;BME280;67429;51.596;-3.264;2024-02-15T05:20:47;98711.73;;;14.16;100.00
78064;BME280;67429;51.596;-3.264;2024-02-15T05:23:12;98709.49;;;13.88;100.00
78064;BME280;67429;51.596;-3.264;2024-02-15T05:25:38;98705.36;;;13.76;100.00
78064;BME280;67429;51.596;-3.264;2024-02-15T05:28:04;98701.98;;;14.32;100.00
78064;BME280;67429;51.596;-3.264;2024-02-15T05:30:29;98698.51;;;14.26;100.00
78064;BME280;67429;51.596;-3.264;2024-02-15T05:32:54;98693.10;;;14.47;100.00
78064;BME280;67429;51.596;-3.264;2024-02-15T05:35:20;98692.49;;;14.18;100.00
78064;BME280;67429;51.596;-3.264;2024-02-15T05:37:45;98691.19;;;12.81;100.00
78064;BME280;67429;51.596;-3.264;2024-02-15T05:40:11;98688.88;;;14.09;100.00
78064;BME280;67429;51.596;-3.264;2024-02-15T05:42:38;98688.30;;;14.51;100.00
78064;BME280;67429;51.596;-3.264;2024-02-15T05:47:27;98679.35;;;12.98;100.00
78064;BME280;67429;51.596;-3.264;2024-02-15T05:49:52;98680.43;;;13.20;100.00
78064;BME280;67429;51.596;-3.264;2024-02-15T05:52:18;98679.54;;;13.97;100.00
78064;BME280;67429;51.596;-3.264;2024-02-15T05:54:43;98678.64;;;14.08;100.00
78064;BME280;67429;51.596;-3.264;2024-02-15T05:57:09;98679.89;;;13.75;100.00
78064;BME280;67429;51.596;-3.264;2024-02-15T05:59:36;98681.84;;;13.28;100.00
78064;BME280;67429;51.596;-3.264;2024-02-15T06:02:00;98682.03;;;13.83;100.00
78064;BME280;67429;51.596;-3.264;2024-02-15T06:04:25;98678.10;;;13.82;100.00
78064;BME280;67429;51.596;-3.264;2024-02-15T06:06:52;98676.10;;;13.09;100.00
78064;BME280;67429;51.596;-3.264;2024-02-15T06:09:17;98674.80;;;12.92;100.00
78064;BME280;67429;51.596;-3.264;2024-02-15T06:11:42;98677.56;;;12.63;100.00
78064;BME280;67429;51.596;-3.264;2024-02-15T06:14:09;98679.58;;;12.85;100.00
78064;BME280;67429;51.596;-3.264;2024-02-15T06:16:33;98678.73;;;12.94;100.00
78064;BME280;67429;51.596;-3.264;2024-02-15T06:18:59;98677.58;;;12.46;100.00
78064;BME280;67429;51.596;-3.264;2024-02-15T06:21:24;98679.48;;;12.10;100.00
78064;BME280;67429;51.596;-3.264;2024-02-15T06:23:50;98679.21;;;11.69;100.00
78064;BME280;67429;51.596;-3.264;2024-02-15T06:26:15;98677.77;;;12.13;100.00
78064;BME280;67429;51.596;-3.264;2024-02-15T06:28:41;98678.40;;;11.71;100.00
78064;BME280;67429;51.596;-3.264;2024-02-15T06:31:08;98676.18;;;11.93;100.00
78064;BME280;67429;51.596;-3.264;2024-02-15T06:33:32;98676.36;;;11.41;100.00
78064;BME280;67429;51.596;-3.264;2024-02-15T06:35:58;98671.90;;;11.49;100.00
78064;BME280;67429;51.596;-3.264;2024-02-15T06:38:24;98671.66;;;11.56;100.00
78064;BME280;67429;51.596;-3.264;2024-02-15T06:40:49;98665.46;;;11.39;100.00
78064;BME280;67429;51.596;-3.264;2024-02-15T06:43:14;98664.93;;;11.37;100.00
78064;BME280;67429;51.596;-3.264;2024-02-15T06:45:40;98665.81;;;11.32;100.00
78064;BME280;67429;51.596;-3.264;2024-02-15T06:48:06;98666.96;;;10.79;100.00
78064;BME280;67429;51.596;-3.264;2024-02-15T06:50:31;98666.07;;;11.26;100.00
78064;BME280;67429;51.596;-3.264;2024-02-15T06:52:56;98666.34;;;11.77;100.00
78064;BME280;67429;51.596;-3.264;2024-02-15T06:55:22;98663.06;;;11.52;100.00
78064;BME280;67429;51.596;-3.264;2024-02-15T06:57:47;98659.19;;;12.36;100.00
78064;BME280;67429;51.596;-3.264;2024-02-15T07:00:13;98657.67;;;11.56;100.00
78064;BME280;67429;51.596;-3.264;2024-02-15T07:02:38;98654.59;;;11.61;100.00
78064;BME280;67429;51.596;-3.264;2024-02-15T07:05:04;98655.97;;;11.74;100.00
78064;BME280;67429;51.596;-3.264;2024-02-15T07:07:30;98648.14;;;11.93;100.00
78064;BME280;67429;51.596;-3.264;2024-02-15T07:09:54;98647.51;;;11.86;100.00
78064;BME280;67429;51.596;-3.264;2024-02-15T07:12:20;98641.83;;;12.37;100.00
78064;BME280;67429;51.596;-3.264;2024-02-15T07:14:45;98640.84;;;11.98;100.00
78064;BME280;67429;51.596;-3.264;2024-02-15T07:17:11;98640.52;;;12.05;100.00
78064;BME280;67429;51.596;-3.264;2024-02-15T07:19:36;98644.23;;;11.35;100.00
78064;BME280;67429;51.596;-3.264;2024-02-15T07:22:02;98641.93;;;11.07;100.00
78064;BME280;67429;51.596;-3.264;2024-02-15T07:24:27;98645.05;;;11.73;100.00
78064;BME280;67429;51.596;-3.264;2024-02-15T07:26:53;98646.17;;;11.68;100.00
78064;BME280;67429;51.596;-3.264;2024-02-15T07:29:18;98644.26;;;11.69;100.00
78064;BME280;67429;51.596;-3.264;2024-02-15T07:31:44;98637.44;;;11.57;100.00
78064;BME280;67429;51.596;-3.264;2024-02-15T07:34:09;98639.38;;;11.65;100.00
78064;BME280;67429;51.596;-3.264;2024-02-15T07:36:35;98640.93;;;11.74;100.00
78064;BME280;67429;51.596;-3.264;2024-02-15T07:39:02;98642.44;;;11.68;100.00
78064;BME280;67429;51.596;-3.264;2024-02-15T07:41:27;98646.62;;;11.31;100.00
78064;BME280;67429;51.596;-3.264;2024-02-15T07:43:52;98635.91;;;12.54;100.00
78064;BME280;67429;51.596;-3.264;2024-02-15T07:46:18;98634.71;;;12.53;100.00
78064;BME280;67429;51.596;-3.264;2024-02-15T07:48:44;98634.58;;;11.61;100.00
78064;BME280;67429;51.596;-3.264;2024-02-15T07:51:09;98638.95;;;11.41;100.00
78064;BME280;67429;51.596;-3.264;2024-02-15T07:53:35;98642.53;;;11.83;100.00
78064;BME280;67429;51.596;-3.264;2024-02-15T07:56:01;98643.63;;;11.70;100.00
78064;BME280;67429;51.596;-3.264;2024-02-15T07:58:26;98649.23;;;11.52;100.00
78064;BME280;67429;51.596;-3.264;2024-02-15T08:00:51;98646.67;;;12.47;100.00
78064;BME280;67429;51.596;-3.264;2024-02-15T08:03:17;98652.20;;;12.26;100.00
78064;BME280;67429;51.596;-3.264;2024-02-15T08:05:44;98652.88;;;12.13;100.00
78064;BME280;67429;51.596;-3.264;2024-02-15T08:08:09;98651.15;;;11.63;100.00
78064;BME280;67429;51.596;-3.264;2024-02-15T08:10:34;98653.53;;;11.99;100.00
78064;BME280;67429;51.596;-3.264;2024-02-15T08:13:00;98648.65;;;11.48;100.00
78064;BME280;67429;51.596;-3.264;2024-02-15T08:15:25;98645.20;;;11.84;100.00
78064;BME280;67429;51.596;-3.264;2024-02-15T08:17:50;98635.65;;;11.29;100.00
78064;BME280;67429;51.596;-3.264;2024-02-15T08:20:16;98630.14;;;11.76;100.00
78064;BME280;67429;51.596;-3.264;2024-02-15T08:22:41;98620.85;;;12.10;100.00
78064;BME280;67429;51.596;-3.264;2024-02-15T08:25:09;98616.44;;;11.90;100.00
78064;BME280;67429;51.596;-3.264;2024-02-15T08:27:32;98624.40;;;10.77;100.00
78064;BME280;67429;51.596;-3.264;2024-02-15T08:29:57;98623.14;;;10.99;100.00
78064;BME280;67429;51.596;-3.264;2024-02-15T08:32:23;98621.87;;;10.42;100.00
78064;BME280;67429;51.596;-3.264;2024-02-15T08:34:48;98620.87;;;9.95;100.00
78064;BME280;67429;51.596;-3.264;2024-02-15T08:37:14;98620.90;;;10.39;100.00
78064;BME280;67429;51.596;-3.264;2024-02-15T08:39:41;98619.89;;;10.79;100.00
78064;BME280;67429;51.596;-3.264;2024-02-15T08:42:05;98614.68;;;11.25;100.00
78064;BME280;67429;51.596;-3.264;2024-02-15T08:44:31;98604.81;;;11.38;100.00
78064;BME280;67429;51.596;-3.264;2024-02-15T08:46:57;98606.54;;;10.99;100.00
78064;BME280;67429;51.596;-3.264;2024-02-15T08:49:22;98601.60;;;11.24;100.00
78064;BME280;67429;51.596;-3.264;2024-02-15T08:51:48;98601.37;;;11.44;100.00
78064;BME280;67429;51.596;-3.264;2024-02-15T08:54:15;98597.52;;;11.34;100.00
78064;BME280;67429;51.596;-3.264;2024-02-15T08:56:40;98583.67;;;11.60;100.00
78064;BME280;67429;51.596;-3.264;2024-02-15T08:59:05;98583.00;;;11.85;100.00
78064;BME280;67429;51.596;-3.264;2024-02-15T09:01:31;98584.55;;;11.46;100.00
78064;BME280;67429;51.596;-3.264;2024-02-15T09:03:56;98577.31;;;11.62;100.00
78064;BME280;67429;51.596;-3.264;2024-02-15T09:06:21;98572.74;;;10.77;100.00
78064;BME280;67429;51.596;-3.264;2024-02-15T09:08:46;98570.15;;;11.23;100.00
78064;BME280;67429;51.596;-3.264;2024-02-15T09:11:12;98565.78;;;10.64;100.00
78064;BME280;67429;51.596;-3.264;2024-02-15T09:13:38;98562.97;;;10.56;100.00
78064;BME280;67429;51.596;-3.264;2024-02-15T09:16:03;98562.43;;;11.29;100.00
78064;BME280;67429;51.596;-3.264;2024-02-15T09:18:30;98549.90;;;11.68;100.00
78064;BME280;67429;51.596;-3.264;2024-02-15T09:20:53;98548.92;;;10.83;100.00
78064;BME280;67429;51.596;-3.264;2024-02-15T09:23:20;98541.25;;;11.09;100.00
78064;BME280;67429;51.596;-3.264;2024-02-15T09:25:45;98538.93;;;10.64;100.00
78064;BME280;67429;51.596;-3.264;2024-02-15T09:28:10;98544.81;;;10.48;100.00
78064;BME280;67429;51.596;-3.264;2024-02-15T09:30:36;98536.47;;;10.80;100.00
78064;BME280;67429;51.596;-3.264;2024-02-15T09:33:01;98535.19;;;10.20;100.00
78064;BME280;67429;51.596;-3.264;2024-02-15T09:35:27;98540.43;;;10.86;100.00
78064;BME280;67429;51.596;-3.264;2024-02-15T09:37:52;98541.55;;;11.12;100.00
78064;BME280;67429;51.596;-3.264;2024-02-15T09:40:19;98539.01;;;11.48;100.00
78064;BME280;67429;51.596;-3.264;2024-02-15T09:42:44;98549.24;;;11.66;100.00
78064;BME280;67429;51.596;-3.264;2024-02-15T09:45:09;98557.07;;;11.68;100.00
78064;BME280;67429;51.596;-3.264;2024-02-15T09:47:35;98561.83;;;12.22;100.00
78064;BME280;67429;51.596;-3.264;2024-02-15T09:49:59;98565.21;;;13.04;100.00
78064;BME280;67429;51.596;-3.264;2024-02-15T09:52:25;98554.78;;;13.05;100.00
78064;BME280;67429;51.596;-3.264;2024-02-15T09:54:51;98549.31;;;12.04;100.00
78064;BME280;67429;51.596;-3.264;2024-02-15T09:57:17;98547.95;;;13.09;100.00
78064;BME280;67429;51.596;-3.264;2024-02-15T09:59:47;98541.10;;;12.62;100.00
78064;BME280;67429;51.596;-3.264;2024-02-15T10:02:07;98534.92;;;12.65;100.00
78064;BME280;67429;51.596;-3.264;2024-02-15T10:04:33;98538.00;;;13.14;100.00
78064;BME280;67429;51.596;-3.264;2024-02-15T10:06:58;98537.94;;;13.24;100.00
78064;BME280;67429;51.596;-3.264;2024-02-15T10:09:24;98538.55;;;12.28;100.00
78064;BME280;67429;51.596;-3.264;2024-02-15T10:11:54;98532.65;;;12.59;100.00
78064;BME280;67429;51.596;-3.264;2024-02-15T10:14:14;98532.80;;;12.92;100.00
78064;BME280;67429;51.596;-3.264;2024-02-15T10:16:40;98531.51;;;12.81;100.00
78064;BME280;67429;51.596;-3.264;2024-02-15T10:19:09;98536.10;;;11.52;100.00
78064;BME280;67429;51.596;-3.264;2024-02-15T10:21:33;98531.71;;;12.05;100.00
78064;BME280;67429;51.596;-3.264;2024-02-15T10:24:04;98532.18;;;12.18;100.00
78064;BME280;67429;51.596;-3.264;2024-02-15T10:26:22;98535.22;;;11.19;100.00
78064;BME280;67429;51.596;-3.264;2024-02-15T10:28:47;98532.98;;;11.41;100.00
78064;BME280;67429;51.596;-3.264;2024-02-15T10:31:13;98529.78;;;11.73;100.00
78064;BME280;67429;51.596;-3.264;2024-02-15T10:33:38;98523.56;;;12.03;100.00
78064;BME280;67429;51.596;-3.264;2024-02-15T10:36:08;98523.24;;;12.22;100.00
78064;BME280;67429;51.596;-3.264;2024-02-15T10:38:31;98519.06;;;12.02;100.00
78064;BME280;67429;51.596;-3.264;2024-02-15T10:41:03;98521.68;;;12.48;100.00
78064;BME280;67429;51.596;-3.264;2024-02-15T10:43:21;98522.14;;;13.00;100.00
78064;BME280;67429;51.596;-3.264;2024-02-15T10:45:47;98520.60;;;12.49;100.00
78064;BME280;67429;51.596;-3.264;2024-02-15T10:48:11;98516.90;;;12.02;100.00
78064;BME280;67429;51.596;-3.264;2024-02-15T10:50:39;98511.21;;;11.62;100.00
78064;BME280;67429;51.596;-3.264;2024-02-15T10:53:08;98500.49;;;12.15;100.00
78064;BME280;67429;51.596;-3.264;2024-02-15T10:55:37;98492.89;;;12.14;100.00
78064;BME280;67429;51.596;-3.264;2024-02-15T10:58:00;98484.46;;;12.03;100.00
78064;BME280;67429;51.596;-3.264;2024-02-15T11:00:20;98479.61;;;11.97;100.00
78064;BME280;67429;51.596;-3.264;2024-02-15T11:02:52;98486.19;;;11.92;100.00
78064;BME280;67429;51.596;-3.264;2024-02-15T11:05:15;98494.33;;;12.37;100.00
78064;BME280;67429;51.596;-3.264;2024-02-15T11:07:37;98485.94;;;12.58;100.00
78064;BME280;67429;51.596;-3.264;2024-02-15T11:10:01;98487.20;;;12.92;100.00
78064;BME280;67429;51.596;-3.264;2024-02-15T11:12:27;98487.33;;;12.69;100.00
78064;BME280;67429;51.596;-3.264;2024-02-15T11:14:51;98486.06;;;13.69;100.00
78064;BME280;67429;51.596;-3.264;2024-02-15T11:19:44;98497.13;;;13.43;100.00
78064;BME280;67429;51.596;-3.264;2024-02-15T11:22:09;98503.15;;;13.83;100.00
78064;BME280;67429;51.596;-3.264;2024-02-15T11:24:33;98504.25;;;13.86;100.00
78064;BME280;67429;51.596;-3.264;2024-02-15T11:26:59;98499.37;;;13.64;100.00
78064;BME280;67429;51.596;-3.264;2024-02-15T11:31:59;98487.91;;;13.66;100.00
78064;BME280;67429;51.596;-3.264;2024-02-15T11:36:41;98487.90;;;14.50;100.00
78064;BME280;67429;51.596;-3.264;2024-02-15T11:41:33;98479.59;;;13.50;100.00
78064;BME280;67429;51.596;-3.264;2024-02-15T11:43:57;98473.70;;;12.76;100.00
78064;BME280;67429;51.596;-3.264;2024-02-15T11:46:25;98478.86;;;13.73;100.00
78064;BME280;67429;51.596;-3.264;2024-02-15T11:48:50;98478.73;;;13.77;100.00
78064;BME280;67429;51.596;-3.264;2024-02-15T11:51:25;98484.36;;;13.58;100.00
78064;BME280;67429;51.596;-3.264;2024-02-15T11:53:39;98476.03;;;13.19;100.00
78064;BME280;67429;51.596;-3.264;2024-02-15T11:56:05;98476.82;;;13.73;100.00
78064;BME280;67429;51.596;-3.264;2024-02-15T11:58:30;98477.05;;;13.88;100.00
78064;BME280;67429;51.596;-3.264;2024-02-15T12:00:59;98474.44;;;14.07;100.00
78064;BME280;67429;51.596;-3.264;2024-02-15T12:03:21;98471.79;;;14.38;100.00
78064;BME280;67429;51.596;-3.264;2024-02-15T12:05:48;98473.46;;;14.46;100.00
78064;BME280;67429;51.596;-3.264;2024-02-15T12:08:11;98468.10;;;14.89;100.00
78064;BME280;67429;51.596;-3.264;2024-02-15T12:10:36;98464.06;;;14.60;100.00
78064;BME280;67429;51.596;-3.264;2024-02-15T12:13:02;98465.78;;;13.57;100.00
78064;BME280;67429;51.596;-3.264;2024-02-15T12:15:28;98473.61;;;14.57;100.00
78064;BME280;67429;51.596;-3.264;2024-02-15T12:17:53;98476.44;;;14.27;100.00
78064;BME280;67429;51.596;-3.264;2024-02-15T12:20:20;98464.25;;;14.51;100.00
78064;BME280;67429;51.596;-3.264;2024-02-15T12:22:46;98460.61;;;14.10;100.00
78064;BME280;67429;51.596;-3.264;2024-02-15T12:25:15;98455.18;;;13.84;100.00
78064;BME280;67429;51.596;-3.264;2024-02-15T12:27:37;98444.04;;;13.48;100.00
78064;BME280;67429;51.596;-3.264;2024-02-15T12:30:01;98440.63;;;13.58;100.00
78064;BME280;67429;51.596;-3.264;2024-02-15T12:32:27;98438.76;;;13.89;100.00
78064;BME280;67429;51.596;-3.264;2024-02-15T12:37:19;98438.63;;;13.73;100.00
78064;BME280;67429;51.596;-3.264;2024-02-15T12:39:45;98435.56;;;13.03;100.00
78064;BME280;67429;51.596;-3.264;2024-02-15T12:42:11;98430.85;;;13.69;100.00
78064;BME280;67429;51.596;-3.264;2024-02-15T12:44:34;98429.59;;;13.30;100.00